createdAt,value
2023-08-05T00:00:43.988Z,6.43
2023-08-05T00:03:11.246Z,8.40
2023-08-05T00:05:41.172Z,7.97
2023-08-05T00:08:08.102Z,5.77
2023-08-05T00:10:35.226Z,6.27
2023-08-05T00:13:02.174Z,7.47
2023-08-05T00:15:29.172Z,10.23
2023-08-05T00:17:56.168Z,6.83
2023-08-05T00:20:23.100Z,6.27
2023-08-05T00:22:50.024Z,6.20
2023-08-05T00:25:17.086Z,7.87
2023-08-05T00:27:43.991Z,7.07
2023-08-05T00:30:11.479Z,7.63
2023-08-05T00:32:38.577Z,5.87
2023-08-05T00:35:06.678Z,7.87
2023-08-05T00:37:34.606Z,6.87
2023-08-05T00:40:02.417Z,8.30
2023-08-05T00:42:29.554Z,7.80
2023-08-05T00:44:56.625Z,6.07
2023-08-05T00:47:23.639Z,6.63
2023-08-05T00:49:54.585Z,9.23
2023-08-05T00:52:23.473Z,6.70
2023-08-05T00:54:51.170Z,8.40
2023-08-05T00:57:19.520Z,6.73
2023-08-05T00:59:46.839Z,7.97
2023-08-05T01:02:13.696Z,6.23
2023-08-05T01:04:40.653Z,9.70
2023-08-05T01:07:07.636Z,6.03
2023-08-05T01:09:34.683Z,6.40
2023-08-05T01:12:01.598Z,6.63
2023-08-05T01:14:28.472Z,5.97
2023-08-05T01:16:55.356Z,9.57
2023-08-05T01:19:22.719Z,6.77
2023-08-05T01:21:57.475Z,6.23
2023-08-05T01:24:41.203Z,8.17
2023-08-05T01:27:09.330Z,4.37
2023-08-05T01:29:36.443Z,11.13
2023-08-05T01:32:03.920Z,6.77
2023-08-05T01:34:31.672Z,8.57
2023-08-05T01:36:58.601Z,5.93
2023-08-05T01:39:25.456Z,6.60
2023-08-05T01:41:52.273Z,8.77
2023-08-05T01:44:19.170Z,4.33
2023-08-05T01:46:46.079Z,7.73
2023-08-05T01:49:12.956Z,6.90
2023-08-05T01:51:39.783Z,7.50
2023-08-05T01:54:06.601Z,6.50
2023-08-05T01:56:33.490Z,9.40
2023-08-05T01:59:00.332Z,6.70
2023-08-05T02:01:46.725Z,8.03
2023-08-05T02:04:14.171Z,7.23
2023-08-05T02:06:41.986Z,7.20
2023-08-05T02:09:09.421Z,6.80
2023-08-05T02:11:36.513Z,6.70
2023-08-05T02:14:04.037Z,7.87
2023-08-05T02:16:33.989Z,7.20
2023-08-05T02:19:00.971Z,7.70
2023-08-05T02:21:27.886Z,8.07
2023-08-05T02:23:54.817Z,9.27
2023-08-05T02:26:21.751Z,9.40
2023-08-05T02:28:48.848Z,5.67
2023-08-05T02:31:16.340Z,8.10
2023-08-05T02:33:43.291Z,6.67
2023-08-05T02:36:10.445Z,8.27
2023-08-05T02:38:37.308Z,9.73
2023-08-05T02:41:08.795Z,6.10
2023-08-05T02:43:35.761Z,8.97
2023-08-05T02:46:02.810Z,6.90
2023-08-05T02:48:29.750Z,4.67
2023-08-05T02:50:56.774Z,5.17
2023-08-05T02:53:24.006Z,4.37
2023-08-05T02:55:51.178Z,8.20
2023-08-05T02:58:18.567Z,6.03
2023-08-05T03:00:46.601Z,4.77
2023-08-05T03:03:13.935Z,6.77
2023-08-05T03:05:40.883Z,6.37
2023-08-05T03:08:07.927Z,5.50
2023-08-05T03:10:34.845Z,6.73
2023-08-05T03:13:01.757Z,5.77
2023-08-05T03:15:30.060Z,9.13
2023-08-05T03:17:57.040Z,5.97
2023-08-05T03:20:26.626Z,7.53
2023-08-05T03:22:54.476Z,5.33
2023-08-05T03:25:26.464Z,8.57
2023-08-05T03:27:53.734Z,4.13
2023-08-05T03:30:20.815Z,7.00
2023-08-05T03:32:48.266Z,5.67
2023-08-05T03:35:15.494Z,5.50
2023-08-05T03:37:42.557Z,6.03
2023-08-05T03:40:09.753Z,6.90
2023-08-05T03:42:37.200Z,7.70
2023-08-05T03:45:05.724Z,5.10
2023-08-05T03:47:33.834Z,8.00
2023-08-05T03:50:01.495Z,6.00
2023-08-05T03:52:29.017Z,6.80
2023-08-05T03:54:55.946Z,7.97
2023-08-05T03:57:22.826Z,5.43
2023-08-05T03:59:51.256Z,4.60
2023-08-05T04:02:18.615Z,5.57
2023-08-05T04:04:45.541Z,6.73
2023-08-05T04:07:13.833Z,5.27
2023-08-05T04:09:41.610Z,6.33
2023-08-05T04:12:10.822Z,6.13
2023-08-05T04:14:41.228Z,6.97
2023-08-05T04:17:09.839Z,6.87
2023-08-05T04:19:38.489Z,5.27
2023-08-05T04:22:05.752Z,3.73
2023-08-05T04:24:34.090Z,4.27
2023-08-05T04:27:01.097Z,3.20
2023-08-05T04:29:28.051Z,5.10
2023-08-05T04:31:54.918Z,5.10
2023-08-05T04:34:22.034Z,6.47
2023-08-05T04:36:51.719Z,5.47
2023-08-05T04:39:22.474Z,4.93
2023-08-05T04:41:49.394Z,4.17
2023-08-05T04:44:16.264Z,4.67
2023-08-05T04:46:43.152Z,6.03
2023-08-05T04:49:11.584Z,4.73
2023-08-05T04:51:39.149Z,5.43
2023-08-05T04:54:06.114Z,3.93
2023-08-05T04:56:34.959Z,5.03
2023-08-05T04:59:01.997Z,7.17
2023-08-05T05:01:29.113Z,4.37
2023-08-05T05:03:57.621Z,3.80
2023-08-05T05:06:25.385Z,2.93
2023-08-05T05:08:52.432Z,3.50
2023-08-05T05:11:19.432Z,3.80
2023-08-05T05:13:48.425Z,2.50
2023-08-05T05:16:15.328Z,4.53
2023-08-05T05:18:42.338Z,3.10
2023-08-05T05:21:09.382Z,3.10
2023-08-05T05:23:36.222Z,4.90
2023-08-05T05:26:03.230Z,3.47
2023-08-05T05:28:30.080Z,3.20
2023-08-05T05:30:56.925Z,4.77
2023-08-05T05:33:23.864Z,3.43
2023-08-05T05:35:51.720Z,3.30
2023-08-05T05:38:18.666Z,6.10
2023-08-05T05:40:45.595Z,4.67
2023-08-05T05:43:12.575Z,5.67
2023-08-05T05:45:43.092Z,4.50
2023-08-05T05:48:11.509Z,7.20
2023-08-05T05:50:42.469Z,2.70
2023-08-05T05:53:15.224Z,1.30
2023-08-05T05:55:46.516Z,2.87
2023-08-05T05:58:15.057Z,3.07
2023-08-05T06:00:42.024Z,3.80
2023-08-05T06:03:09.061Z,3.27
2023-08-05T06:05:36.078Z,4.87
2023-08-05T06:08:03.193Z,5.73
2023-08-05T06:10:30.501Z,3.27
2023-08-05T06:12:58.350Z,3.80
2023-08-05T06:15:25.250Z,3.73
2023-08-05T06:17:52.253Z,5.00
2023-08-05T06:20:19.455Z,1.93
2023-08-05T06:22:46.333Z,2.50
2023-08-05T06:25:13.594Z,3.67
2023-08-05T06:27:40.420Z,2.43
2023-08-05T06:30:07.959Z,3.40
2023-08-05T06:32:34.950Z,2.20
2023-08-05T06:35:01.845Z,3.40
2023-08-05T06:37:28.732Z,2.33
2023-08-05T06:39:55.668Z,2.80
2023-08-05T06:42:25.316Z,3.37
2023-08-05T06:44:52.466Z,5.13
2023-08-05T06:47:19.523Z,6.53
2023-08-05T06:49:46.412Z,3.77
2023-08-05T06:52:13.451Z,4.33
2023-08-05T06:54:40.379Z,3.20
2023-08-05T06:57:07.762Z,1.97
2023-08-05T06:59:34.995Z,1.27
2023-08-05T07:02:02.006Z,4.73
2023-08-05T07:04:29.015Z,2.93
2023-08-05T07:06:55.907Z,3.07
2023-08-05T07:09:22.807Z,3.87
2023-08-05T07:11:50.011Z,3.17
2023-08-05T07:14:17.315Z,2.70
2023-08-05T07:16:44.241Z,2.73
2023-08-05T07:19:11.991Z,2.57
2023-08-05T07:21:38.997Z,2.80
2023-08-05T07:24:05.917Z,4.07
2023-08-05T07:26:32.779Z,2.30
2023-08-05T07:28:59.630Z,4.77
2023-08-05T07:31:26.561Z,5.10
2023-08-05T07:33:53.453Z,2.70
2023-08-05T07:36:24.000Z,6.33
2023-08-05T07:38:52.557Z,3.67
2023-08-05T07:41:21.727Z,3.43
2023-08-05T07:43:48.765Z,5.97
2023-08-05T07:46:17.155Z,2.87
2023-08-05T07:48:47.193Z,4.47
2023-08-05T07:51:14.316Z,3.53
2023-08-05T07:53:41.354Z,3.57
2023-08-05T07:56:15.089Z,3.87
2023-08-05T07:58:48.719Z,5.47
2023-08-05T08:01:24.461Z,4.87
2023-08-05T08:03:55.133Z,3.40
2023-08-05T08:06:22.707Z,3.83
2023-08-05T08:08:50.063Z,6.10
2023-08-05T08:11:16.971Z,7.27
2023-08-05T08:13:43.886Z,3.53
2023-08-05T08:16:10.879Z,6.00
2023-08-05T08:18:38.212Z,5.60
2023-08-05T08:21:06.633Z,3.80
2023-08-05T08:23:33.579Z,4.30
2023-08-05T08:26:00.891Z,5.20
2023-08-05T08:28:28.481Z,3.33
2023-08-05T08:30:56.661Z,3.93
2023-08-05T08:33:24.797Z,3.10
2023-08-05T08:35:51.983Z,4.67
2023-08-05T08:38:25.814Z,6.10
2023-08-05T08:40:54.258Z,5.63
2023-08-05T08:43:22.351Z,6.37
2023-08-05T08:45:53.100Z,6.40
2023-08-05T08:48:24.432Z,5.53
2023-08-05T08:50:53.886Z,5.10
2023-08-05T08:53:22.376Z,7.73
2023-08-05T08:55:49.358Z,8.17
2023-08-05T08:58:16.269Z,6.77
2023-08-05T09:00:43.531Z,5.20
2023-08-05T09:03:11.633Z,6.80
2023-08-05T09:05:43.602Z,6.13
2023-08-05T09:08:10.932Z,7.77
2023-08-05T09:10:39.144Z,5.10
2023-08-05T09:13:09.338Z,9.87
2023-08-05T09:15:40.654Z,9.57
2023-08-05T09:18:09.883Z,7.73
2023-08-05T09:20:38.094Z,9.07
2023-08-05T09:23:06.960Z,8.10
2023-08-05T09:25:34.885Z,11.80
2023-08-05T09:28:02.509Z,14.33
2023-08-05T09:30:29.479Z,11.83
2023-08-05T09:32:56.706Z,6.80
2023-08-05T09:35:25.573Z,9.03
2023-08-05T09:37:53.858Z,13.03
2023-08-05T09:40:29.505Z,13.23
2023-08-05T09:43:09.185Z,11.77
2023-08-05T09:45:36.796Z,16.20
2023-08-05T09:48:15.033Z,9.67
2023-08-05T09:50:42.228Z,13.70
2023-08-05T09:53:10.907Z,15.83
2023-08-05T09:55:38.764Z,9.43
2023-08-05T09:58:09.929Z,12.50
2023-08-05T10:00:43.192Z,11.60
2023-08-05T10:03:15.289Z,9.33
2023-08-05T10:05:45.940Z,13.47
2023-08-05T10:08:17.785Z,10.43
2023-08-05T10:10:45.748Z,17.40
2023-08-05T10:13:21.503Z,13.37
2023-08-05T10:15:53.592Z,15.27
2023-08-05T10:18:20.675Z,10.70
2023-08-05T10:20:54.285Z,9.97
2023-08-05T10:23:25.376Z,11.10
2023-08-05T10:25:59.648Z,11.23
2023-08-05T10:28:29.293Z,11.67
2023-08-05T10:30:56.555Z,13.23
2023-08-05T10:33:24.157Z,11.57
2023-08-05T10:35:51.284Z,14.50
2023-08-05T10:38:25.110Z,12.67
2023-08-05T10:41:06.723Z,10.40
2023-08-05T10:43:43.007Z,13.70
2023-08-05T10:46:15.609Z,10.17
2023-08-05T10:48:44.258Z,7.10
2023-08-05T10:51:26.580Z,10.60
2023-08-05T10:53:53.425Z,12.00
2023-08-05T10:56:20.507Z,11.53
2023-08-05T10:58:50.156Z,17.03
2023-08-05T11:01:18.210Z,14.33
2023-08-05T11:03:49.548Z,9.10
2023-08-05T11:06:23.112Z,18.10
2023-08-05T11:08:49.995Z,9.37
2023-08-05T11:11:17.337Z,10.37
2023-08-05T11:13:50.329Z,8.83
2023-08-05T11:16:18.918Z,11.83
2023-08-05T11:18:59.090Z,9.03
2023-08-05T11:21:25.999Z,15.17
2023-08-05T11:23:52.949Z,10.50
2023-08-05T11:26:22.757Z,14.63
2023-08-05T11:28:49.626Z,14.60
2023-08-05T11:31:26.191Z,13.50
2023-08-05T11:33:54.452Z,8.77
2023-08-05T11:36:28.437Z,7.53
2023-08-05T11:38:59.150Z,10.37
2023-08-05T11:41:26.743Z,16.63
2023-08-05T11:43:57.198Z,9.20
2023-08-05T11:46:28.330Z,14.00
2023-08-05T11:49:11.639Z,12.20
2023-08-05T11:51:47.984Z,11.73
2023-08-05T11:54:25.102Z,14.83
2023-08-05T11:56:51.961Z,15.07
2023-08-05T11:59:18.895Z,9.37
2023-08-05T12:01:45.787Z,11.80
2023-08-05T12:04:12.832Z,9.53
2023-08-05T12:06:39.752Z,9.53
2023-08-05T12:09:07.290Z,8.73
2023-08-05T12:11:46.298Z,11.43
2023-08-05T12:14:13.816Z,11.10
2023-08-05T12:16:40.712Z,14.47
2023-08-05T12:19:07.591Z,14.93
2023-08-05T12:24:06.209Z,11.33
2023-08-05T12:26:33.031Z,12.50
2023-08-05T12:28:59.881Z,12.17
2023-08-05T12:31:26.727Z,13.33
2023-08-05T12:33:53.668Z,14.50
2023-08-05T12:36:20.480Z,14.07
2023-08-05T12:38:49.556Z,11.93
2023-08-05T12:41:16.923Z,13.03
2023-08-05T12:43:43.800Z,7.73
2023-08-05T12:46:10.719Z,9.37
2023-08-05T12:48:37.581Z,10.43
2023-08-05T12:51:04.499Z,10.30
2023-08-05T12:53:31.400Z,12.90
2023-08-05T12:55:58.350Z,8.87
2023-08-05T12:58:25.219Z,12.67
2023-08-05T13:00:52.256Z,10.53
2023-08-05T13:03:20.622Z,10.33
2023-08-05T13:05:47.556Z,12.33
2023-08-05T13:08:14.424Z,10.23
2023-08-05T13:10:43.707Z,15.40
2023-08-05T13:13:10.608Z,13.43
2023-08-05T13:15:37.432Z,12.20
2023-08-05T13:18:04.480Z,11.50
2023-08-05T13:20:31.477Z,9.03
2023-08-05T13:22:58.291Z,11.33
2023-08-05T13:25:25.145Z,10.13
2023-08-05T13:27:52.509Z,9.67
2023-08-05T13:30:22.167Z,12.60
2023-08-05T13:32:49.070Z,9.70
2023-08-05T13:35:16.038Z,11.67
2023-08-05T13:37:42.903Z,9.57
2023-08-05T13:40:10.259Z,11.53
2023-08-05T13:42:37.154Z,9.07
2023-08-05T13:45:04.608Z,11.93
2023-08-05T13:47:31.628Z,18.07
2023-08-05T13:49:58.491Z,11.27
2023-08-05T13:52:25.405Z,14.97
2023-08-05T13:54:52.224Z,12.57
2023-08-05T13:57:19.142Z,11.80
2023-08-05T13:59:45.975Z,12.00
2023-08-05T14:02:12.794Z,11.50
2023-08-05T14:04:44.378Z,9.87
2023-08-05T14:07:11.601Z,12.50
2023-08-05T14:09:38.510Z,12.33
2023-08-05T14:12:05.909Z,12.73
2023-08-05T14:14:33.007Z,9.67
2023-08-05T14:16:59.872Z,9.53
2023-08-05T14:19:27.071Z,11.97
2023-08-05T14:21:54.034Z,14.03
2023-08-05T14:24:20.906Z,10.43
2023-08-05T14:26:47.812Z,8.70
2023-08-05T14:29:14.803Z,9.27
2023-08-05T14:31:41.762Z,6.97
2023-08-05T14:34:08.849Z,8.73
2023-08-05T14:36:35.724Z,9.97
2023-08-05T14:39:05.151Z,7.63
2023-08-05T14:41:32.477Z,8.73
2023-08-05T14:43:59.297Z,13.90
2023-08-05T14:46:26.233Z,10.20
2023-08-05T14:48:53.611Z,11.43
2023-08-05T14:51:20.587Z,6.93
2023-08-05T14:53:47.712Z,10.43
2023-08-05T14:56:15.903Z,6.80
2023-08-05T14:58:42.735Z,7.17
2023-08-05T15:01:19.003Z,6.10
2023-08-05T15:03:50.393Z,9.30
2023-08-05T15:06:19.297Z,7.57
2023-08-05T15:08:47.621Z,10.20
2023-08-05T15:11:14.649Z,10.27
2023-08-05T15:13:41.684Z,10.43
2023-08-05T15:16:08.618Z,6.10
2023-08-05T15:18:35.586Z,12.13
2023-08-05T15:21:03.054Z,5.27
2023-08-05T15:23:32.410Z,4.80
2023-08-05T15:26:02.298Z,10.33
2023-08-05T15:28:29.583Z,9.13
2023-08-05T15:30:56.440Z,8.60
2023-08-05T15:33:26.742Z,8.60
2023-08-05T15:35:53.733Z,5.10
2023-08-05T15:38:20.626Z,6.57
2023-08-05T15:40:47.540Z,4.23
2023-08-05T15:43:17.366Z,6.90
2023-08-05T15:45:55.799Z,3.73
2023-08-05T15:48:22.728Z,8.33
2023-08-05T15:50:49.596Z,7.53
2023-08-05T15:53:16.530Z,6.83
2023-08-05T15:55:43.511Z,8.00
2023-08-05T15:58:10.356Z,6.80
2023-08-05T16:00:37.760Z,6.43
2023-08-05T16:03:04.715Z,11.43
2023-08-05T16:05:31.687Z,12.07
2023-08-05T16:07:58.565Z,14.30
2023-08-05T16:10:25.431Z,14.83
2023-08-05T16:12:52.475Z,11.57
2023-08-05T16:15:19.329Z,13.80
2023-08-05T16:17:46.198Z,11.63
2023-08-05T16:20:14.576Z,6.63
2023-08-05T16:22:41.420Z,7.27
2023-08-05T16:25:08.946Z,16.57
2023-08-05T16:27:41.634Z,11.07
2023-08-05T16:30:09.186Z,4.30
2023-08-05T16:32:36.578Z,7.73
2023-08-05T16:35:03.604Z,5.53
2023-08-05T16:37:30.465Z,5.57
2023-08-05T16:39:57.370Z,4.93
2023-08-05T16:42:24.213Z,5.93
2023-08-05T16:44:51.082Z,5.63
2023-08-05T16:47:18.030Z,6.80
2023-08-05T16:49:44.863Z,3.87
2023-08-05T16:52:12.171Z,4.27
2023-08-05T16:54:39.666Z,6.70
2023-08-05T16:57:07.157Z,7.47
2023-08-05T16:59:34.015Z,3.73
2023-08-05T17:02:01.333Z,3.80
2023-08-05T17:04:28.294Z,4.13
2023-08-05T17:06:55.191Z,4.43
2023-08-05T17:09:22.820Z,5.93
2023-08-05T17:11:50.064Z,3.40
2023-08-05T17:14:17.236Z,8.10
2023-08-05T17:16:44.104Z,4.37
2023-08-05T17:19:11.016Z,4.53
2023-08-05T17:21:38.181Z,3.07
2023-08-05T17:24:05.416Z,6.87
2023-08-05T17:26:32.327Z,4.13
2023-08-05T17:28:59.164Z,3.70
2023-08-05T17:31:26.095Z,5.20
2023-08-05T17:33:53.023Z,4.03
2023-08-05T17:36:22.758Z,3.93
2023-08-05T17:38:49.672Z,4.23
2023-08-05T17:41:16.555Z,3.60
2023-08-05T17:43:43.391Z,4.03
2023-08-05T17:46:11.957Z,4.30
2023-08-05T17:48:38.863Z,5.60
2023-08-05T17:51:05.754Z,6.03
2023-08-05T17:53:32.676Z,3.20
2023-08-05T17:55:59.496Z,4.20
2023-08-05T17:58:26.480Z,6.17
2023-08-05T18:00:53.587Z,3.70
2023-08-05T18:03:20.458Z,3.70
2023-08-05T18:05:47.706Z,6.20
2023-08-05T18:08:14.623Z,5.37
2023-08-05T18:10:41.513Z,8.20
2023-08-05T18:13:08.342Z,7.80
2023-08-05T18:15:35.308Z,6.83
2023-08-05T18:18:05.828Z,5.13
2023-08-05T18:20:34.153Z,7.00
2023-08-05T18:23:01.325Z,12.33
2023-08-05T18:25:30.440Z,3.87
2023-08-05T18:27:57.455Z,4.37
2023-08-05T18:30:24.411Z,4.70
2023-08-05T18:32:51.296Z,2.90
2023-08-05T18:35:18.319Z,2.80
2023-08-05T18:37:45.164Z,3.27
2023-08-05T18:40:12.321Z,5.27
2023-08-05T18:42:39.205Z,2.33
2023-08-05T18:45:06.711Z,2.07
2023-08-05T18:47:33.671Z,3.87
2023-08-05T18:50:00.618Z,7.27
2023-08-05T18:52:27.495Z,5.33
2023-08-05T18:54:54.432Z,5.23
2023-08-05T18:57:21.293Z,3.97
2023-08-05T18:59:48.157Z,3.53
2023-08-05T19:02:15.115Z,3.97
2023-08-05T19:04:45.090Z,3.67
2023-08-05T19:07:12.438Z,4.23
2023-08-05T19:09:39.373Z,3.57
2023-08-05T19:12:06.452Z,4.97
2023-08-05T19:14:33.327Z,4.50
2023-08-05T19:17:00.199Z,4.67
2023-08-05T19:19:27.058Z,7.33
2023-08-05T19:21:54.165Z,3.63
2023-08-05T19:24:21.224Z,3.53
2023-08-05T19:26:48.087Z,3.77
2023-08-05T19:29:15.769Z,6.07
2023-08-05T19:31:42.716Z,5.37
2023-08-05T19:34:09.658Z,14.43
2023-08-05T19:36:36.637Z,3.37
2023-08-05T19:39:03.642Z,7.03
2023-08-05T19:41:30.552Z,7.17
2023-08-05T19:43:57.389Z,4.47
2023-08-05T19:46:24.451Z,7.17
2023-08-05T19:48:51.360Z,9.93
2023-08-05T19:51:18.175Z,6.63
2023-08-05T19:53:46.512Z,6.20
2023-08-05T19:56:13.663Z,8.60
2023-08-05T19:58:40.606Z,5.87
2023-08-05T20:01:08.411Z,6.07
2023-08-05T20:03:35.709Z,8.33
2023-08-05T20:06:02.626Z,3.73
2023-08-05T20:08:29.577Z,8.73
2023-08-05T20:10:56.479Z,6.33
2023-08-05T20:13:23.360Z,3.87
2023-08-05T20:15:51.310Z,6.07
2023-08-05T20:18:19.728Z,6.37
2023-08-05T20:20:46.601Z,4.37
2023-08-05T20:23:13.673Z,5.87
2023-08-05T20:25:40.645Z,3.87
2023-08-05T20:28:07.473Z,6.00
2023-08-05T20:30:37.526Z,6.17
2023-08-05T20:33:04.751Z,6.93
2023-08-05T20:35:35.224Z,5.03
2023-08-05T20:38:02.492Z,9.20
2023-08-05T20:40:29.387Z,5.70
2023-08-05T20:42:56.352Z,8.93
2023-08-05T20:45:23.286Z,8.57
2023-08-05T20:47:52.397Z,7.43
2023-08-05T20:50:19.387Z,7.67
2023-08-05T20:52:46.263Z,5.13
2023-08-05T20:55:13.269Z,4.70
2023-08-05T20:57:40.206Z,6.67
2023-08-05T21:00:07.810Z,5.50
2023-08-05T21:02:34.725Z,10.13
2023-08-05T21:05:04.414Z,6.03
2023-08-05T21:07:32.385Z,6.07
2023-08-05T21:09:59.433Z,6.17
2023-08-05T21:12:26.341Z,5.10
2023-08-05T21:14:53.385Z,6.83
2023-08-05T21:17:20.244Z,8.17
2023-08-05T21:19:47.213Z,7.20
2023-08-05T21:22:14.151Z,4.70
2023-08-05T21:24:40.976Z,8.60
2023-08-05T21:27:08.038Z,7.37
2023-08-05T21:29:36.979Z,7.63
2023-08-05T21:32:06.202Z,4.17
2023-08-05T21:34:33.378Z,6.83
2023-08-05T21:37:00.416Z,4.67
2023-08-05T21:39:27.403Z,8.73
2023-08-05T21:41:54.674Z,6.67
2023-08-05T21:44:21.804Z,8.83
2023-08-05T21:46:48.696Z,9.30
2023-08-05T21:49:15.600Z,5.97
2023-08-05T21:51:42.530Z,5.00
2023-08-05T21:54:09.516Z,12.33
2023-08-05T21:56:36.693Z,3.03
2023-08-05T21:59:03.705Z,4.00
2023-08-05T22:01:30.795Z,7.93
2023-08-05T22:03:57.794Z,11.40
2023-08-05T22:06:24.748Z,7.80
2023-08-05T22:08:51.906Z,8.17
2023-08-05T22:11:18.886Z,14.53
2023-08-05T22:13:45.856Z,7.37
2023-08-05T22:16:12.816Z,6.70
2023-08-05T22:18:39.790Z,4.30
2023-08-05T22:21:06.906Z,5.37
2023-08-05T22:23:33.778Z,10.07
2023-08-05T22:26:06.581Z,9.03
2023-08-05T22:28:33.672Z,10.60
2023-08-05T22:31:00.588Z,8.87
2023-08-05T22:33:27.501Z,6.00
2023-08-05T22:35:54.372Z,7.60
2023-08-05T22:38:21.256Z,7.27
2023-08-05T22:40:48.117Z,11.03
2023-08-05T22:43:15.066Z,9.23
2023-08-05T22:45:41.963Z,10.47
2023-08-05T22:48:08.806Z,8.40
2023-08-05T22:50:40.422Z,11.07
2023-08-05T22:53:07.466Z,10.00
2023-08-05T22:55:37.695Z,7.57
2023-08-05T22:58:04.803Z,10.90
2023-08-05T23:00:32.010Z,5.53
2023-08-05T23:02:59.107Z,6.30
2023-08-05T23:05:26.349Z,7.60
2023-08-05T23:07:53.414Z,9.13
2023-08-05T23:10:20.400Z,7.80
2023-08-05T23:12:47.288Z,6.17
2023-08-05T23:15:14.280Z,8.10
2023-08-05T23:17:42.760Z,8.70
2023-08-05T23:20:10.083Z,10.30
2023-08-05T23:22:36.955Z,5.63
2023-08-05T23:25:04.211Z,7.40
2023-08-05T23:27:31.105Z,10.00
2023-08-05T23:29:58.244Z,6.60
2023-08-05T23:32:25.246Z,7.07
2023-08-05T23:34:52.157Z,7.57
2023-08-05T23:37:19.060Z,7.50
2023-08-05T23:39:45.930Z,8.17
2023-08-05T23:42:13.629Z,8.63
2023-08-05T23:44:40.527Z,10.50
2023-08-05T23:47:07.651Z,9.60
2023-08-05T23:49:34.584Z,11.77
2023-08-05T23:52:01.447Z,10.87
2023-08-05T23:54:28.394Z,9.30
2023-08-05T23:56:55.266Z,9.23
2023-08-05T23:59:22.142Z,8.83
